sensor_id;sensor_type;location;lat;lon;timestamp;pressure;altitude;pressure_sealevel;temperature;humidity
65754;BME280;69207;47.502;18.940;2023-09-07T00:00:01;98795.78;;;17.32;72.99
65754;BME280;69207;47.502;18.940;2023-09-07T00:01:07;98798.66;;;17.34;72.85
65754;BME280;69207;47.502;18.940;2023-09-07T00:02:10;98795.19;;;17.34;72.83
65754;BME280;69207;47.502;18.940;2023-09-07T00:03:14;98797.94;;;17.34;72.92
65754;BME280;69207;47.502;18.940;2023-09-07T00:04:19;98797.25;;;17.33;73.40
65754;BME280;69207;47.502;18.940;2023-09-07T00:05:22;98797.81;;;17.32;73.25
65754;BME280;69207;47.502;18.940;2023-09-07T00:06:25;98794.34;;;17.31;73.41
65754;BME280;69207;47.502;18.940;2023-09-07T00:07:29;98803.28;;;17.30;74.61
65754;BME280;69207;47.502;18.940;2023-09-07T00:08:33;98796.19;;;17.27;74.37
65754;BME280;69207;47.502;18.940;2023-09-07T00:09:36;98791.94;;;17.26;74.56
65754;BME280;69207;47.502;18.940;2023-09-07T00:10:39;98792.56;;;17.24;74.62
65754;BME280;69207;47.502;18.940;2023-09-07T00:11:42;98798.75;;;17.23;74.50
65754;BME280;69207;47.502;18.940;2023-09-07T00:12:45;98801.41;;;17.21;74.68
65754;BME280;69207;47.502;18.940;2023-09-07T00:13:48;98793.69;;;17.19;74.46
65754;BME280;69207;47.502;18.940;2023-09-07T00:14:54;98795.75;;;17.19;74.44
65754;BME280;69207;47.502;18.940;2023-09-07T00:16:01;98796.37;;;17.17;74.42
65754;BME280;69207;47.502;18.940;2023-09-07T00:17:04;98790.09;;;17.17;74.35
65754;BME280;69207;47.502;18.940;2023-09-07T00:18:08;98798.28;;;17.14;74.22
65754;BME280;69207;47.502;18.940;2023-09-07T00:19:11;98799.72;;;17.15;74.16
65754;BME280;69207;47.502;18.940;2023-09-07T00:20:15;98799.00;;;17.15;74.11
65754;BME280;69207;47.502;18.940;2023-09-07T00:21:18;98796.84;;;17.13;74.26
65754;BME280;69207;47.502;18.940;2023-09-07T00:22:21;98796.97;;;17.15;73.71
65754;BME280;69207;47.502;18.940;2023-09-07T00:23:24;98803.97;;;17.17;73.35
65754;BME280;69207;47.502;18.940;2023-09-07T00:24:27;98799.72;;;17.15;73.18
65754;BME280;69207;47.502;18.940;2023-09-07T00:25:30;98796.97;;;17.15;73.09
65754;BME280;69207;47.502;18.940;2023-09-07T00:26:33;98799.72;;;17.15;73.06
65754;BME280;69207;47.502;18.940;2023-09-07T00:27:36;98799.00;;;17.15;72.94
65754;BME280;69207;47.502;18.940;2023-09-07T00:28:39;98796.97;;;17.15;73.00
65754;BME280;69207;47.502;18.940;2023-09-07T00:29:42;98799.72;;;17.15;73.12
65754;BME280;69207;47.502;18.940;2023-09-07T00:30:45;98792.75;;;17.14;73.30
65754;BME280;69207;47.502;18.940;2023-09-07T00:31:48;98795.66;;;17.17;73.06
65754;BME280;69207;47.502;18.940;2023-09-07T00:32:52;98785.25;;;17.17;73.09
65754;BME280;69207;47.502;18.940;2023-09-07T00:33:55;98799.72;;;17.15;73.18
65754;BME280;69207;47.502;18.940;2023-09-07T00:34:58;98797.56;;;17.14;73.13
65754;BME280;69207;47.502;18.940;2023-09-07T00:36:02;98794.69;;;17.12;73.21
65754;BME280;69207;47.502;18.940;2023-09-07T00:37:06;98791.94;;;17.12;73.64
65754;BME280;69207;47.502;18.940;2023-09-07T00:38:10;98785.03;;;17.13;73.54
65754;BME280;69207;47.502;18.940;2023-09-07T00:39:14;98783.47;;;17.10;73.78
65754;BME280;69207;47.502;18.940;2023-09-07T00:40:17;98791.69;;;17.08;73.71
65754;BME280;69207;47.502;18.940;2023-09-07T00:41:21;98795.81;;;17.07;73.79
65754;BME280;69207;47.502;18.940;2023-09-07T00:42:24;98790.25;;;17.07;74.29
65754;BME280;69207;47.502;18.940;2023-09-07T00:43:27;98795.09;;;17.06;74.50
65754;BME280;69207;47.502;18.940;2023-09-07T00:44:30;98785.91;;;17.04;74.61
65754;BME280;69207;47.502;18.940;2023-09-07T00:45:33;98796.31;;;17.03;74.56
65754;BME280;69207;47.502;18.940;2023-09-07T00:46:36;98801.12;;;17.03;74.33
65754;BME280;69207;47.502;18.940;2023-09-07T00:47:40;98801.12;;;17.03;74.45
65754;BME280;69207;47.502;18.940;2023-09-07T00:48:43;98792.09;;;17.02;74.65
65754;BME280;69207;47.502;18.940;2023-09-07T00:49:46;98797.53;;;17.00;74.98
65754;BME280;69207;47.502;18.940;2023-09-07T00:50:49;98798.88;;;16.99;75.42
65754;BME280;69207;47.502;18.940;2023-09-07T00:51:53;98794.03;;;17.00;75.47
65754;BME280;69207;47.502;18.940;2023-09-07T00:52:56;98790.31;;;16.95;75.52
65754;BME280;69207;47.502;18.940;2023-09-07T00:54:00;98791.66;;;16.94;75.68
65754;BME280;69207;47.502;18.940;2023-09-07T00:55:04;98790.19;;;16.93;75.64
65754;BME280;69207;47.502;18.940;2023-09-07T00:56:07;98790.94;;;16.94;75.62
65754;BME280;69207;47.502;18.940;2023-09-07T00:57:11;98794.44;;;16.94;75.37
65754;BME280;69207;47.502;18.940;2023-09-07T00:58:14;98795.03;;;16.93;75.29
65754;BME280;69207;47.502;18.940;2023-09-07T00:59:18;98792.25;;;16.93;75.32
65754;BME280;69207;47.502;18.940;2023-09-07T01:00:21;98791.66;;;16.94;75.24
65754;BME280;69207;47.502;18.940;2023-09-07T01:01:24;98792.25;;;16.93;75.21
65754;BME280;69207;47.502;18.940;2023-09-07T01:02:28;98797.09;;;16.92;75.18
65754;BME280;69207;47.502;18.940;2023-09-07T01:03:32;98795.66;;;16.91;75.27
65754;BME280;69207;47.502;18.940;2023-09-07T01:04:35;98785.88;;;16.90;75.35
65754;BME280;69207;47.502;18.940;2023-09-07T01:05:47;98789.87;;;16.87;75.70
65754;BME280;69207;47.502;18.940;2023-09-07T01:06:56;98793.38;;;16.87;75.68
65754;BME280;69207;47.502;18.940;2023-09-07T01:08:10;98791.91;;;16.86;75.58
65754;BME280;69207;47.502;18.940;2023-09-07T01:09:19;98787.00;;;16.85;75.23
65754;BME280;69207;47.502;18.940;2023-09-07T01:10:23;98789.03;;;16.84;75.10
65754;BME280;69207;47.502;18.940;2023-09-07T01:11:26;98792.53;;;16.85;74.95
65754;BME280;69207;47.502;18.940;2023-09-07T01:12:30;98786.28;;;16.84;74.93
65754;BME280;69207;47.502;18.940;2023-09-07T01:13:33;98791.72;;;16.82;74.99
65754;BME280;69207;47.502;18.940;2023-09-07T01:14:36;98790.38;;;16.83;74.57
65754;BME280;69207;47.502;18.940;2023-09-07T01:15:39;98795.22;;;16.83;74.62
65754;BME280;69207;47.502;18.940;2023-09-07T01:16:43;98791.81;;;16.84;74.63
65754;BME280;69207;47.502;18.940;2023-09-07T01:17:47;98792.44;;;16.83;74.74
65754;BME280;69207;47.502;18.940;2023-09-07T01:18:51;98792.31;;;16.81;nan
65754;BME280;69207;47.502;18.940;2023-09-07T01:19:57;98787.59;;;16.83;74.81
65754;BME280;69207;47.502;18.940;2023-09-07T01:21:02;98790.97;;;16.82;74.79
65754;BME280;69207;47.502;18.940;2023-09-07T01:22:09;98788.09;;;16.80;74.83
65754;BME280;69207;47.502;18.940;2023-09-07T01:23:12;98801.34;;;16.81;74.85
65754;BME280;69207;47.502;18.940;2023-09-07T01:24:16;98790.38;;;16.83;74.92
65754;BME280;69207;47.502;18.940;2023-09-07T01:25:19;98785.41;;;16.82;74.90
65754;BME280;69207;47.502;18.940;2023-09-07T01:26:23;98793.97;;;16.86;74.74
65754;BME280;69207;47.502;18.940;2023-09-07T01:27:26;98789.75;;;16.85;74.48
65754;BME280;69207;47.502;18.940;2023-09-07T01:28:30;98792.44;;;16.83;74.58
65754;BME280;69207;47.502;18.940;2023-09-07T01:29:34;98792.44;;;16.83;74.69
65754;BME280;69207;47.502;18.940;2023-09-07T01:30:40;98792.31;;;16.81;74.68
65754;BME280;69207;47.502;18.940;2023-09-07T01:31:43;98794.38;;;16.80;74.71
65754;BME280;69207;47.502;18.940;2023-09-07T01:32:46;98790.25;;;16.81;74.71
65754;BME280;69207;47.502;18.940;2023-09-07T01:33:49;98790.38;;;16.83;74.63
65754;BME280;69207;47.502;18.940;2023-09-07T01:34:56;98788.09;;;16.80;74.87
65754;BME280;69207;47.502;18.940;2023-09-07T01:36:00;98785.94;;;16.78;74.97
65754;BME280;69207;47.502;18.940;2023-09-07T01:37:04;98785.22;;;16.78;74.99
65754;BME280;69207;47.502;18.940;2023-09-07T01:38:06;98783.03;;;16.76;74.95
65754;BME280;69207;47.502;18.940;2023-09-07T01:39:10;98789.19;;;16.75;75.11
65754;BME280;69207;47.502;18.940;2023-09-07T01:40:13;98782.44;;;16.78;74.85
65754;BME280;69207;47.502;18.940;2023-09-07T01:41:16;98789.44;;;16.79;74.69
65754;BME280;69207;47.502;18.940;2023-09-07T01:42:19;98793.41;;;16.76;74.70
65754;BME280;69207;47.502;18.940;2023-09-07T01:43:25;98789.09;;;16.73;74.78
65754;BME280;69207;47.502;18.940;2023-09-07T01:44:28;98790.44;;;16.72;74.82
65754;BME280;69207;47.502;18.940;2023-09-07T01:45:32;98791.75;;;16.71;74.73
65754;BME280;69207;47.502;18.940;2023-09-07T01:46:35;98789.72;;;16.71;74.60
65754;BME280;69207;47.502;18.940;2023-09-07T01:47:41;98796.81;;;16.74;74.41
65754;BME280;69207;47.502;18.940;2023-09-07T01:48:44;98793.41;;;16.76;74.22
65754;BME280;69207;47.502;18.940;2023-09-07T01:49:48;98793.94;;;16.72;74.34
65754;BME280;69207;47.502;18.940;2023-09-07T01:50:54;98788.97;;;16.71;74.32
65754;BME280;69207;47.502;18.940;2023-09-07T01:51:57;98787.66;;;16.72;74.17
65754;BME280;69207;47.502;18.940;2023-09-07T01:53:00;98788.38;;;16.72;74.17
65754;BME280;69207;47.502;18.940;2023-09-07T01:54:06;98791.88;;;16.73;74.03
65754;BME280;69207;47.502;18.940;2023-09-07T01:55:09;98788.97;;;16.71;74.11
65754;BME280;69207;47.502;18.940;2023-09-07T01:56:12;98795.00;;;16.67;74.15
65754;BME280;69207;47.502;18.940;2023-09-07T01:57:15;98793.66;;;16.68;74.11
65754;BME280;69207;47.502;18.940;2023-09-07T01:58:18;98795.81;;;16.70;73.96
65754;BME280;69207;47.502;18.940;2023-09-07T01:59:21;98788.13;;;16.68;74.00
65754;BME280;69207;47.502;18.940;2023-09-07T02:00:25;98795.00;;;16.67;73.96
65754;BME280;69207;47.502;18.940;2023-09-07T02:01:30;98792.94;;;16.68;73.90
65754;BME280;69207;47.502;18.940;2023-09-07T02:02:33;98780.41;;;16.67;73.90
65754;BME280;69207;47.502;18.940;2023-09-07T02:03:36;98790.03;;;16.66;73.96
65754;BME280;69207;47.502;18.940;2023-09-07T02:04:40;98794.16;;;16.64;74.04
65754;BME280;69207;47.502;18.940;2023-09-07T02:05:46;98791.38;;;16.64;74.06
65754;BME280;69207;47.502;18.940;2023-09-07T02:06:50;98790.78;;;16.66;73.91
65754;BME280;69207;47.502;18.940;2023-09-07T02:07:53;98796.22;;;16.64;73.98
65754;BME280;69207;47.502;18.940;2023-09-07T02:08:56;98796.94;;;16.64;74.06
65754;BME280;69207;47.502;18.940;2023-09-07T02:09:59;98796.22;;;16.64;74.12
65754;BME280;69207;47.502;18.940;2023-09-07T02:11:02;98795.38;;;16.61;74.20
65754;BME280;69207;47.502;18.940;2023-09-07T02:12:06;98791.03;;;16.58;74.19
65754;BME280;69207;47.502;18.940;2023-09-07T02:13:09;98799.38;;;16.58;74.26
65754;BME280;69207;47.502;18.940;2023-09-07T02:14:12;98792.47;;;16.59;74.23
65754;BME280;69207;47.502;18.940;2023-09-07T02:15:15;98799.97;;;16.57;74.20
65754;BME280;69207;47.502;18.940;2023-09-07T02:16:19;98794.44;;;16.57;74.13
65754;BME280;69207;47.502;18.940;2023-09-07T02:17:22;98801.19;;;16.54;74.14
65754;BME280;69207;47.502;18.940;2023-09-07T02:18:25;98797.09;;;16.55;74.30
65754;BME280;69207;47.502;18.940;2023-09-07T02:19:28;98802.41;;;16.51;74.36
65754;BME280;69207;47.502;18.940;2023-09-07T02:20:34;98798.91;;;16.50;74.42
65754;BME280;69207;47.502;18.940;2023-09-07T02:21:37;98799.50;;;16.49;74.54
65754;BME280;69207;47.502;18.940;2023-09-07T02:22:40;98805.81;;;16.49;74.60
65754;BME280;69207;47.502;18.940;2023-09-07T02:23:44;98801.34;;;16.44;74.77
65754;BME280;69207;47.502;18.940;2023-09-07T02:24:47;98801.84;;;16.41;74.98
65754;BME280;69207;47.502;18.940;2023-09-07T02:25:50;98802.44;;;16.39;75.11
65754;BME280;69207;47.502;18.940;2023-09-07T02:26:53;98800.25;;;16.37;75.26
65754;BME280;69207;47.502;18.940;2023-09-07T02:27:56;98795.31;;;16.36;75.27
65754;BME280;69207;47.502;18.940;2023-09-07T02:28:59;98794.84;;;16.40;74.96
65754;BME280;69207;47.502;18.940;2023-09-07T02:30:04;98795.94;;;16.34;75.07
65754;BME280;69207;47.502;18.940;2023-09-07T02:31:07;98796.44;;;16.31;75.34
65754;BME280;69207;47.502;18.940;2023-09-07T02:32:11;98801.00;;;16.26;75.59
65754;BME280;69207;47.502;18.940;2023-09-07T02:33:15;98797.88;;;16.20;75.84
65754;BME280;69207;47.502;18.940;2023-09-07T02:34:18;98802.59;;;16.18;75.99
65754;BME280;69207;47.502;18.940;2023-09-07T02:35:21;98791.63;;;16.20;75.94
65754;BME280;69207;47.502;18.940;2023-09-07T02:36:25;98791.75;;;16.22;75.92
65754;BME280;69207;47.502;18.940;2023-09-07T02:37:28;98798.50;;;16.19;75.97
65754;BME280;69207;47.502;18.940;2023-09-07T02:38:31;98795.38;;;16.13;76.21
65754;BME280;69207;47.502;18.940;2023-09-07T02:39:34;98797.28;;;16.10;76.35
65754;BME280;69207;47.502;18.940;2023-09-07T02:40:44;98802.00;;;16.07;76.54
65754;BME280;69207;47.502;18.940;2023-09-07T02:41:48;98789.59;;;16.08;76.53
65754;BME280;69207;47.502;18.940;2023-09-07T02:42:51;98799.25;;;16.07;76.46
65754;BME280;69207;47.502;18.940;2023-09-07T02:43:54;98803.97;;;16.05;76.53
65754;BME280;69207;47.502;18.940;2023-09-07T02:44:57;98794.91;;;16.04;76.52
65754;BME280;69207;47.502;18.940;2023-09-07T02:46:00;98798.78;;;15.99;76.67
65754;BME280;69207;47.502;18.940;2023-09-07T02:47:04;98794.31;;;15.94;76.87
65754;BME280;69207;47.502;18.940;2023-09-07T02:48:07;98797.81;;;15.95;77.14
65754;BME280;69207;47.502;18.940;2023-09-07T02:49:10;98811.78;;;15.97;77.04
65754;BME280;69207;47.502;18.940;2023-09-07T02:50:13;98802.84;;;15.98;77.01
65754;BME280;69207;47.502;18.940;2023-09-07T02:51:17;98795.75;;;15.95;77.03
65754;BME280;69207;47.502;18.940;2023-09-07T02:52:21;98802.75;;;15.96;77.08
65754;BME280;69207;47.502;18.940;2023-09-07T02:53:24;98806.84;;;15.95;77.10
65754;BME280;69207;47.502;18.940;2023-09-07T02:54:27;98797.22;;;15.96;77.07
65754;BME280;69207;47.502;18.940;2023-09-07T02:55:31;98804.69;;;15.94;77.04
65754;BME280;69207;47.502;18.940;2023-09-07T02:56:34;98803.94;;;15.93;77.08
65754;BME280;69207;47.502;18.940;2023-09-07T02:57:37;98810.94;;;15.94;77.31
65754;BME280;69207;47.502;18.940;2023-09-07T02:58:40;98803.22;;;15.93;77.69
65754;BME280;69207;47.502;18.940;2023-09-07T02:59:43;98803.72;;;15.89;78.02
65754;BME280;69207;47.502;18.940;2023-09-07T03:00:46;98807.22;;;15.90;78.23
65754;BME280;69207;47.502;18.940;2023-09-07T03:01:50;98805.16;;;15.90;78.24
65754;BME280;69207;47.502;18.940;2023-09-07T03:02:53;98811.91;;;15.87;78.39
65754;BME280;69207;47.502;18.940;2023-09-07T03:03:56;98798.53;;;15.83;78.94
65754;BME280;69207;47.502;18.940;2023-09-07T03:04:59;98805.53;;;15.84;79.02
65754;BME280;69207;47.502;18.940;2023-09-07T03:06:13;98802.16;;;15.86;79.06
65754;BME280;69207;47.502;18.940;2023-09-07T03:07:16;98806.00;;;15.81;79.46
65754;BME280;69207;47.502;18.940;2023-09-07T03:08:19;98800.34;;;15.79;79.73
65754;BME280;69207;47.502;18.940;2023-09-07T03:09:22;98811.44;;;15.79;79.88
65754;BME280;69207;47.502;18.940;2023-09-07T03:10:25;98804.44;;;15.78;80.10
65754;BME280;69207;47.502;18.940;2023-09-07T03:11:28;98805.63;;;15.75;80.65
65754;BME280;69207;47.502;18.940;2023-09-07T03:12:37;98800.72;;;15.73;81.16
65754;BME280;69207;47.502;18.940;2023-09-07T03:13:40;98808.78;;;15.69;81.43
65754;BME280;69207;47.502;18.940;2023-09-07T03:14:45;98802.50;;;15.69;81.44
65754;BME280;69207;47.502;18.940;2023-09-07T03:15:48;98805.16;;;15.67;81.41
65754;BME280;69207;47.502;18.940;2023-09-07T03:16:51;98808.53;;;15.65;81.28
65754;BME280;69207;47.502;18.940;2023-09-07T03:17:55;98804.91;;;15.63;81.43
65754;BME280;69207;47.502;18.940;2023-09-07T03:18:58;98804.16;;;15.62;81.25
65754;BME280;69207;47.502;18.940;2023-09-07T03:20:01;98806.34;;;15.64;81.25
65754;BME280;69207;47.502;18.940;2023-09-07T03:21:17;98806.22;;;15.62;81.11
65754;BME280;69207;47.502;18.940;2023-09-07T03:22:20;98805.03;;;15.65;81.18
65754;BME280;69207;47.502;18.940;2023-09-07T03:23:24;98803.72;;;15.66;81.03
65754;BME280;69207;47.502;18.940;2023-09-07T03:24:27;98803.72;;;15.66;80.91
65754;BME280;69207;47.502;18.940;2023-09-07T03:25:31;98801.69;;;15.66;80.97
65754;BME280;69207;47.502;18.940;2023-09-07T03:26:34;98802.41;;;15.67;80.85
65754;BME280;69207;47.502;18.940;2023-09-07T03:27:38;98802.41;;;15.67;80.83
65754;BME280;69207;47.502;18.940;2023-09-07T03:28:41;98796.97;;;15.69;80.83
65754;BME280;69207;47.502;18.940;2023-09-07T03:29:44;98801.91;;;15.70;80.76
65754;BME280;69207;47.502;18.940;2023-09-07T03:30:47;98799.28;;;15.72;80.65
65754;BME280;69207;47.502;18.940;2023-09-07T03:31:51;98807.69;;;15.74;80.31
65754;BME280;69207;47.502;18.940;2023-09-07T03:32:54;98802.75;;;15.73;80.09
65754;BME280;69207;47.502;18.940;2023-09-07T03:33:57;98798.66;;;15.74;79.87
65754;BME280;69207;47.502;18.940;2023-09-07T03:35:02;98799.38;;;15.74;79.90
65754;BME280;69207;47.502;18.940;2023-09-07T03:36:05;98803.00;;;15.77;79.64
65754;BME280;69207;47.502;18.940;2023-09-07T03:37:09;98805.16;;;15.78;79.41
65754;BME280;69207;47.502;18.940;2023-09-07T03:38:14;98804.44;;;15.78;79.37
65754;BME280;69207;47.502;18.940;2023-09-07T03:39:17;98811.31;;;15.77;79.34
65754;BME280;69207;47.502;18.940;2023-09-07T03:40:21;98809.84;;;15.76;79.25
65754;BME280;69207;47.502;18.940;2023-09-07T03:41:24;98807.09;;;15.76;79.27
65754;BME280;69207;47.502;18.940;2023-09-07T03:42:33;98807.09;;;15.76;79.35
65754;BME280;69207;47.502;18.940;2023-09-07T03:43:36;98805.03;;;15.76;79.48
65754;BME280;69207;47.502;18.940;2023-09-07T03:44:39;98811.19;;;15.75;79.73
65754;BME280;69207;47.502;18.940;2023-09-07T03:45:42;98809.28;;;15.77;79.65
65754;BME280;69207;47.502;18.940;2023-09-07T03:46:46;98805.78;;;15.77;79.37
65754;BME280;69207;47.502;18.940;2023-09-07T03:47:49;98805.03;;;15.76;79.34
65754;BME280;69207;47.502;18.940;2023-09-07T03:48:53;98803.00;;;15.77;79.45
65754;BME280;69207;47.502;18.940;2023-09-07T03:49:57;98805.63;;;15.75;79.50
65754;BME280;69207;47.502;18.940;2023-09-07T03:51:00;98806.84;;;15.72;79.94
65754;BME280;69207;47.502;18.940;2023-09-07T03:52:03;98798.56;;;15.72;80.07
65754;BME280;69207;47.502;18.940;2023-09-07T03:53:06;98807.59;;;15.72;80.19
65754;BME280;69207;47.502;18.940;2023-09-07T03:54:09;98799.84;;;15.71;80.21
65754;BME280;69207;47.502;18.940;2023-09-07T03:55:12;98806.59;;;15.68;80.17
65754;BME280;69207;47.502;18.940;2023-09-07T03:56:15;98810.00;;;15.66;81.06
65754;BME280;69207;47.502;18.940;2023-09-07T03:57:19;98807.81;;;15.65;81.53
65754;BME280;69207;47.502;18.940;2023-09-07T03:58:22;98804.31;;;15.64;81.55
65754;BME280;69207;47.502;18.940;2023-09-07T03:59:27;98806.34;;;15.64;81.58
65754;BME280;69207;47.502;18.940;2023-09-07T04:00:31;98809.56;;;15.60;81.72
65754;BME280;69207;47.502;18.940;2023-09-07T04:01:34;98808.84;;;15.59;81.75
65754;BME280;69207;47.502;18.940;2023-09-07T04:02:37;98816.44;;;15.59;81.68
65754;BME280;69207;47.502;18.940;2023-09-07T04:03:40;98817.75;;;15.58;81.75
65754;BME280;69207;47.502;18.940;2023-09-07T04:04:54;98810.66;;;15.55;82.09
65754;BME280;69207;47.502;18.940;2023-09-07T04:05:58;98809.09;;;15.52;82.36
65754;BME280;69207;47.502;18.940;2023-09-07T04:07:01;98813.19;;;15.51;82.82
65754;BME280;69207;47.502;18.940;2023-09-07T04:08:04;98811.03;;;15.49;83.22
65754;BME280;69207;47.502;18.940;2023-09-07T04:09:07;98806.69;;;15.46;83.61
65754;BME280;69207;47.502;18.940;2023-09-07T04:10:10;98811.84;;;15.40;84.39
65754;BME280;69207;47.502;18.940;2023-09-07T04:11:14;98817.84;;;15.37;84.41
65754;BME280;69207;47.502;18.940;2023-09-07T04:12:17;98818.34;;;15.33;84.46
65754;BME280;69207;47.502;18.940;2023-09-07T04:13:20;98809.91;;;15.31;84.41
65754;BME280;69207;47.502;18.940;2023-09-07T04:14:23;98811.22;;;15.30;84.46
65754;BME280;69207;47.502;18.940;2023-09-07T04:15:26;98809.78;;;15.29;84.59
65754;BME280;69207;47.502;18.940;2023-09-07T04:16:29;98817.38;;;15.28;84.68
65754;BME280;69207;47.502;18.940;2023-09-07T04:17:32;98820.13;;;15.28;84.74
65754;BME280;69207;47.502;18.940;2023-09-07T04:18:43;98814.47;;;15.26;84.96
65754;BME280;69207;47.502;18.940;2023-09-07T04:19:47;98823.25;;;15.23;85.28
65754;BME280;69207;47.502;18.940;2023-09-07T04:20:50;98821.66;;;15.20;85.36
65754;BME280;69207;47.502;18.940;2023-09-07T04:21:53;98824.19;;;15.16;85.61
65754;BME280;69207;47.502;18.940;2023-09-07T04:22:56;98818.41;;;15.12;86.03
65754;BME280;69207;47.502;18.940;2023-09-07T04:23:59;98818.97;;;15.10;86.32
65754;BME280;69207;47.502;18.940;2023-09-07T04:25:03;98823.06;;;15.09;86.36
65754;BME280;69207;47.502;18.940;2023-09-07T04:26:11;98816.09;;;15.08;86.31
65754;BME280;69207;47.502;18.940;2023-09-07T04:27:14;98820.19;;;15.07;86.57
65754;BME280;69207;47.502;18.940;2023-09-07T04:28:17;98822.84;;;15.05;86.82
65754;BME280;69207;47.502;18.940;2023-09-07T04:29:20;98820.53;;;15.01;87.19
65754;BME280;69207;47.502;18.940;2023-09-07T04:30:26;98812.22;;;15.01;87.03
65754;BME280;69207;47.502;18.940;2023-09-07T04:31:29;98817.78;;;15.01;87.01
65754;BME280;69207;47.502;18.940;2023-09-07T04:32:32;98821.84;;;15.00;86.98
65754;BME280;69207;47.502;18.940;2023-09-07T04:33:35;98819.81;;;15.01;87.06
65754;BME280;69207;47.502;18.940;2023-09-07T04:34:39;98821.13;;;15.00;87.30
65754;BME280;69207;47.502;18.940;2023-09-07T04:35:42;98824.38;;;14.96;87.76
65754;BME280;69207;47.502;18.940;2023-09-07T04:36:45;98830.50;;;14.95;87.84
65754;BME280;69207;47.502;18.940;2023-09-07T04:37:48;98825.44;;;14.91;88.14
65754;BME280;69207;47.502;18.940;2023-09-07T04:38:51;98829.50;;;14.90;88.02
65754;BME280;69207;47.502;18.940;2023-09-07T04:39:54;98822.53;;;14.89;88.32
65754;BME280;69207;47.502;18.940;2023-09-07T04:41:06;98827.47;;;14.91;88.15
65754;BME280;69207;47.502;18.940;2023-09-07T04:42:09;98823.38;;;14.92;88.33
65754;BME280;69207;47.502;18.940;2023-09-07T04:43:12;98832.41;;;14.92;88.41
65754;BME280;69207;47.502;18.940;2023-09-07T04:44:15;98824.09;;;14.92;88.68
65754;BME280;69207;47.502;18.940;2023-09-07T04:45:18;98825.44;;;14.91;88.89
65754;BME280;69207;47.502;18.940;2023-09-07T04:46:22;98819.91;;;14.91;88.73
65754;BME280;69207;47.502;18.940;2023-09-07T04:47:26;98831.69;;;14.92;88.84
65754;BME280;69207;47.502;18.940;2023-09-07T04:48:29;98819.91;;;14.91;89.39
65754;BME280;69207;47.502;18.940;2023-09-07T04:49:32;98828.78;;;14.90;89.40
65754;BME280;69207;47.502;18.940;2023-09-07T04:50:35;98815.69;;;14.90;89.45
65754;BME280;69207;47.502;18.940;2023-09-07T04:51:37;98821.22;;;14.90;89.62
65754;BME280;69207;47.502;18.940;2023-09-07T04:52:40;98822.66;;;14.91;89.65
65754;BME280;69207;47.502;18.940;2023-09-07T04:53:43;98824.69;;;14.91;89.93
65754;BME280;69207;47.502;18.940;2023-09-07T04:54:46;98826.03;;;14.90;90.01
65754;BME280;69207;47.502;18.940;2023-09-07T04:55:49;98818.34;;;14.88;89.93
65754;BME280;69207;47.502;18.940;2023-09-07T04:56:53;98824.59;;;14.89;90.06
65754;BME280;69207;47.502;18.940;2023-09-07T04:57:55;98826.16;;;14.92;90.20
65754;BME280;69207;47.502;18.940;2023-09-07T04:58:58;98823.25;;;14.90;90.52
65754;BME280;69207;47.502;18.940;2023-09-07T05:00:01;98823.25;;;14.90;90.75
65754;BME280;69207;47.502;18.940;2023-09-07T05:01:08;98828.06;;;14.89;90.81
65754;BME280;69207;47.502;18.940;2023-09-07T05:02:11;98828.06;;;14.89;90.83
65754;BME280;69207;47.502;18.940;2023-09-07T05:03:15;98823.72;;;14.86;91.75
65754;BME280;69207;47.502;18.940;2023-09-07T05:04:18;98831.91;;;14.84;91.90
65754;BME280;69207;47.502;18.940;2023-09-07T05:05:21;98830.47;;;14.83;92.00
65754;BME280;69207;47.502;18.940;2023-09-07T05:06:24;98829.84;;;14.85;91.90
65754;BME280;69207;47.502;18.940;2023-09-07T05:07:29;98839.59;;;14.86;91.99
65754;BME280;69207;47.502;18.940;2023-09-07T05:08:32;98829.00;;;14.82;92.71
65754;BME280;69207;47.502;18.940;2023-09-07T05:09:36;98829.00;;;14.82;92.73
65754;BME280;69207;47.502;18.940;2023-09-07T05:10:39;98831.91;;;14.84;92.54
65754;BME280;69207;47.502;18.940;2023-09-07T05:11:42;98831.91;;;14.84;92.56
65754;BME280;69207;47.502;18.940;2023-09-07T05:12:45;98831.91;;;14.84;92.48
65754;BME280;69207;47.502;18.940;2023-09-07T05:13:50;98837.28;;;14.82;92.67
65754;BME280;69207;47.502;18.940;2023-09-07T05:14:53;98840.06;;;14.82;92.69
65754;BME280;69207;47.502;18.940;2023-09-07T05:15:59;98837.28;;;14.82;92.55
65754;BME280;69207;47.502;18.940;2023-09-07T05:17:08;98843.56;;;14.83;92.44
65754;BME280;69207;47.502;18.940;2023-09-07T05:18:11;98844.13;;;14.81;92.35
65754;BME280;69207;47.502;18.940;2023-09-07T05:19:14;98845.34;;;14.78;92.56
65754;BME280;69207;47.502;18.940;2023-09-07T05:20:18;98841.97;;;14.79;92.60
65754;BME280;69207;47.502;18.940;2023-09-07T05:21:21;98844.75;;;14.79;92.50
65754;BME280;69207;47.502;18.940;2023-09-07T05:22:24;98843.91;;;14.77;92.80
65754;BME280;69207;47.502;18.940;2023-09-07T05:23:29;98840.66;;;14.81;92.82
65754;BME280;69207;47.502;18.940;2023-09-07T05:24:32;98844.28;;;14.83;92.83
65754;BME280;69207;47.502;18.940;2023-09-07T05:25:43;98840.06;;;14.82;92.81
65754;BME280;69207;47.502;18.940;2023-09-07T05:26:46;98847.06;;;14.83;92.89
65754;BME280;69207;47.502;18.940;2023-09-07T05:27:49;98842.09;;;14.82;92.96
65754;BME280;69207;47.502;18.940;2023-09-07T05:28:52;98844.13;;;14.81;92.96
65754;BME280;69207;47.502;18.940;2023-09-07T05:29:56;98846.78;;;14.79;93.11
65754;BME280;69207;47.502;18.940;2023-09-07T05:30:59;98844.28;;;14.83;93.30
65754;BME280;69207;47.502;18.940;2023-09-07T05:32:03;98839.47;;;14.84;93.30
65754;BME280;69207;47.502;18.940;2023-09-07T05:33:06;98845.50;;;14.92;92.94